KFKL

Venango Regional Airport

Franklin, Pennsylvania, USA
METAR KFKL 260356Z AUTO 21004KT 10SM CLR 19/11 A2990 RMK AO2 SLP115 T01940111
Observed Flight Rules
May-26 @ 03:56 UTC (27 minutes ago) Visual Flight Rules
Wind Visibility Clouds
210° at 4 knots 10 miles
  • Clear skies
Temperatures Readings
Current 19°C / 66°F
Dewpoint 11°C / 52°F
Humidity 60%
Altimeter 29.9" Hg
Pressure 1011.5 hPa
Elevation 469
METAR KFKL 260356Z AUTO 21004KT 10SM CLR 19/11 A2990 RMK AO2 SLP115 T01940111
Observed Flight Rules
May-26 @ 03:56 UTC
(27 minutes ago)
VFR
Wind Visibility
210° at 4 knots 10 miles
Clouds
  • Clear skies
Temperature Dewpoint
19°C / 66°F 11°C / 52°F
Humidity Altimeter Pressure
60% 29.9" Hg 1011.5 hPa